Time;durP1;ratioP1;P1;durP2;ratioP2;P2;SDS_P1;SDS_P2;PMS_P1;PMS_P2;Temp;Humidity;BMP_temperature;BMP_pressure;BME280_temperature;BME280_humidity;BME280_pressure;Samples;Min_cycle;Max_cycle;Signal;HPM_P1;HPM_P2
2021/01/14 00:00:00;;;;;;;3.33;3.03;;;9.60;61.60;;;;;;5049689;28;20472;-41
2021/01/14 00:02:26;;;;;;;3.50;3.30;;;9.40;61.90;;;;;;5048617;28;20992;-41
2021/01/14 00:04:52;;;;;;;3.40;3.10;;;9.50;61.80;;;;;;5050965;28;20723;-41
2021/01/14 00:07:19;;;;;;;3.67;3.37;;;9.50;61.80;;;;;;5055198;28;20491;-41
2021/01/14 00:09:46;;;;;;;3.17;2.97;;;9.60;61.50;;;;;;5051590;28;20482;-41
2021/01/14 00:12:11;;;;;;;3.77;3.47;;;9.50;61.20;;;;;;5049110;28;20438;-41
2021/01/14 00:14:37;;;;;;;3.50;3.20;;;9.50;61.10;;;;;;5049439;28;20593;-41
2021/01/14 00:17:04;;;;;;;3.60;3.30;;;9.40;60.80;;;;;;5047463;28;20200;-41
2021/01/14 00:19:29;;;;;;;3.60;3.30;;;9.30;60.90;;;;;;5049334;28;20259;-41
2021/01/14 00:21:55;;;;;;;3.60;3.30;;;9.40;60.80;;;;;;5049534;28;20564;-41
2021/01/14 00:24:20;;;;;;;4.40;3.30;;;9.10;60.90;;;;;;5048950;28;20227;-41
2021/01/14 00:26:46;;;;;;;3.63;3.33;;;9.00;61.20;;;;;;5050037;28;20192;-41
2021/01/14 00:29:12;;;;;;;2.70;2.50;;;9.10;61.10;;;;;;5048146;28;20185;-41
2021/01/14 00:31:38;;;;;;;3.43;3.13;;;9.20;61.10;;;;;;5049785;28;20447;-41
2021/01/14 00:34:04;;;;;;;2.80;2.60;;;9.10;61.20;;;;;;5048466;28;20243;-41
2021/01/14 00:39:26;;;;;;;4.00;2.80;;;9.20;60.30;;;;;;5048914;28;20195;-41
2021/01/14 00:41:53;;;;;;;4.10;2.90;;;9.10;60.90;;;;;;5040244;28;20467;-41
2021/01/14 00:44:19;;;;;;;3.80;3.50;;;9.10;60.60;;;;;;5047264;28;21090;-41
2021/01/14 00:46:45;;;;;;;3.70;3.40;;;9.10;60.40;;;;;;5048765;28;20465;-41
2021/01/14 00:49:10;;;;;;;3.40;3.10;;;9.20;60.00;;;;;;5047335;28;20549;-41
2021/01/14 00:51:37;;;;;;;3.43;3.13;;;9.40;59.50;;;;;;5048805;28;20425;-41
2021/01/14 00:54:03;;;;;;;3.00;2.70;;;9.40;59.10;;;;;;5048007;28;20189;-41
2021/01/14 00:56:37;;;;;;;3.03;2.77;;;9.30;59.00;;;;;;5049585;28;20522;-41
2021/01/14 00:59:04;;;;;;;3.50;3.20;;;9.50;58.90;;;;;;5048055;28;20999;-41
2021/01/14 01:01:30;;;;;;;3.60;3.10;;;9.60;58.60;;;;;;5049347;28;20427;-41
2021/01/14 01:03:56;;;;;;;4.70;3.60;;;9.60;58.70;;;;;;5048853;28;20470;-41
2021/01/14 01:06:23;;;;;;;3.07;2.77;;;9.60;58.50;;;;;;5049616;28;20481;-41
2021/01/14 01:08:49;;;;;;;3.67;3.37;;;9.50;58.70;;;;;;5051080;28;20310;-41
2021/01/14 01:11:22;;;;;;;3.10;2.90;;;9.50;58.80;;;;;;5053199;28;20426;-41
2021/01/14 01:13:47;;;;;;;3.90;3.17;;;9.30;59.30;;;;;;5050741;28;20914;-41
2021/01/14 01:16:16;;;;;;;4.97;3.10;;;9.40;59.40;;;;;;5052842;28;20438;-41
2021/01/14 01:18:42;;;;;;;3.00;2.70;;;9.30;59.40;;;;;;5051361;28;20189;-41
2021/01/14 01:21:08;;;;;;;3.50;3.20;;;9.30;59.10;;;;;;5052367;28;20525;-41
2021/01/14 01:23:33;;;;;;;4.20;3.50;;;9.10;59.40;;;;;;5051583;28;20358;-41
2021/01/14 01:25:59;;;;;;;4.77;3.17;;;8.90;59.50;;;;;;5052224;28;20189;-41
2021/01/14 01:28:24;;;;;;;3.90;3.60;;;8.90;59.90;;;;;;5051460;28;20632;-41
2021/01/14 01:30:50;;;;;;;3.37;3.07;;;9.00;59.70;;;;;;5053259;28;20234;-41
2021/01/14 01:33:15;;;;;;;3.50;3.03;;;9.00;59.50;;;;;;5052097;28;20197;-41
2021/01/14 01:35:41;;;;;;;3.97;3.00;;;9.10;59.20;;;;;;5051466;28;20259;-41
2021/01/14 01:38:07;;;;;;;3.03;2.73;;;9.00;59.30;;;;;;5050831;28;20201;-41
2021/01/14 01:40:32;;;;;;;3.70;3.20;;;9.00;59.30;;;;;;5052002;28;20565;-41
2021/01/14 01:42:58;;;;;;;6.80;3.20;;;9.10;59.60;;;;;;5050603;28;20232;-41
2021/01/14 01:45:25;;;;;;;3.60;3.40;;;9.20;58.90;;;;;;5052891;28;20232;-41
2021/01/14 01:47:51;;;;;;;3.57;2.93;;;9.30;58.70;;;;;;5051310;28;20427;-41
2021/01/14 01:50:19;;;;;;;3.87;3.50;;;9.20;58.70;;;;;;5052242;28;20445;-41
2021/01/14 01:52:47;;;;;;;2.90;2.70;;;9.40;58.70;;;;;;5050761;28;20439;-41
2021/01/14 01:55:13;;;;;;;4.50;3.60;;;9.30;59.00;;;;;;5051893;28;20467;-42
2021/01/14 01:57:39;;;;;;;6.33;3.80;;;9.10;59.60;;;;;;5050937;28;20470;-41
2021/01/14 02:00:06;;;;;;;4.77;4.27;;;9.00;59.80;;;;;;5051572;28;20419;-41
2021/01/14 02:02:31;;;;;;;4.27;3.83;;;9.10;60.80;;;;;;5050844;28;20470;-42
2021/01/14 02:04:58;;;;;;;4.37;3.97;;;9.10;60.00;;;;;;5051644;28;20427;-41
2021/01/14 02:07:42;;;;;;;4.20;3.83;;;9.10;60.30;;;;;;5051137;28;20295;-41
2021/01/14 02:10:31;;;;;;;4.17;3.80;;;9.00;60.30;;;;;;5049880;28;20447;-41
2021/01/14 02:12:57;;;;;;;4.27;3.87;;;9.20;59.70;;;;;;5051409;28;20451;-41
2021/01/14 02:15:23;;;;;;;4.37;3.97;;;9.40;59.50;;;;;;5052051;28;20427;-41
2021/01/14 02:17:52;;;;;;;4.83;4.33;;;9.30;59.60;;;;;;5051443;28;20291;-41
2021/01/14 02:20:20;;;;;;;4.70;3.90;;;9.30;59.60;;;;;;5050838;28;20787;-41
2021/01/14 02:22:56;;;;;;;5.40;3.80;;;9.40;59.70;;;;;;5050302;28;20837;-41
2021/01/14 02:25:26;;;;;;;4.47;4.03;;;9.50;59.70;;;;;;5051902;28;20763;-41
2021/01/14 02:27:54;;;;;;;3.63;3.33;;;9.50;59.50;;;;;;5050615;28;20434;-41
2021/01/14 02:30:22;;;;;;;5.30;3.57;;;9.40;59.80;;;;;;5051294;28;20430;-41
2021/01/14 02:32:47;;;;;;;4.70;4.30;;;9.50;59.60;;;;;;5050853;28;20449;-41
2021/01/14 02:35:13;;;;;;;4.50;4.10;;;9.60;59.20;;;;;;5051600;28;20914;-41
2021/01/14 02:37:39;;;;;;;5.03;4.07;;;9.50;59.30;;;;;;5048910;28;20513;-41
2021/01/14 02:40:05;;;;;;;3.87;3.47;;;9.40;59.70;;;;;;5051248;28;20196;-41
2021/01/14 02:42:30;;;;;;;5.10;4.60;;;9.40;59.90;;;;;;5049759;28;20331;-41
2021/01/14 02:44:57;;;;;;;6.60;4.67;;;9.30;59.60;;;;;;5051041;28;20510;-41
2021/01/14 02:47:22;;;;;;;5.40;4.40;;;9.10;59.90;;;;;;5050336;28;20185;-41
2021/01/14 02:49:56;;;;;;;4.10;3.70;;;9.10;60.30;;;;;;5050554;28;20493;-41
2021/01/14 02:52:24;;;;;;;5.47;4.47;;;9.10;59.90;;;;;;5050075;28;20181;-41
2021/01/14 02:54:50;;;;;;;3.47;3.17;;;9.00;59.60;;;;;;5050866;28;20438;-41
2021/01/14 02:57:17;;;;;;;4.03;3.30;;;8.90;60.20;;;;;;5050315;28;20446;-42
2021/01/14 02:59:44;;;;;;;3.30;3.00;;;9.00;60.30;;;;;;5048818;28;20428;-41
2021/01/14 03:02:09;;;;;;;3.17;2.87;;;9.00;59.80;;;;;;5050119;28;20950;-41
2021/01/14 03:04:35;;;;;;;2.53;2.33;;;9.00;59.70;;;;;;5049824;28;20431;-41
2021/01/14 03:07:00;;;;;;;3.43;3.13;;;8.90;59.60;;;;;;5047597;28;20181;-41
2021/01/14 03:09:26;;;;;;;3.00;2.80;;;8.90;59.70;;;;;;5049542;28;20193;-41
2021/01/14 03:11:52;;;;;;;2.90;2.70;;;8.90;59.60;;;;;;5050314;28;20193;-41
2021/01/14 03:14:17;;;;;;;2.57;2.37;;;8.70;59.90;;;;;;5050496;28;20243;-41
2021/01/14 03:16:43;;;;;;;2.30;2.10;;;8.60;60.20;;;;;;5052945;28;20204;-41
2021/01/14 03:19:08;;;;;;;2.67;2.13;;;8.50;60.40;;;;;;5049183;28;20203;-41
2021/01/14 03:21:34;;;;;;;3.90;2.50;;;8.40;60.00;;;;;;5050421;28;20316;-41
2021/01/14 03:23:59;;;;;;;2.83;2.13;;;8.10;60.70;;;;;;5050195;28;20218;-41
2021/01/14 03:26:25;;;;;;;2.67;2.37;;;8.00;61.40;;;;;;5050338;28;20564;-41
2021/01/14 03:28:52;;;;;;;2.50;2.30;;;7.90;61.70;;;;;;5049238;28;20195;-41
2021/01/14 03:31:18;;;;;;;3.13;2.20;;;7.80;62.00;;;;;;5049074;28;20530;-41
2021/01/14 03:33:45;;;;;;;3.00;2.40;;;8.00;62.10;;;;;;5048135;28;20896;-41
2021/01/14 03:36:18;;;;;;;3.37;2.67;;;8.20;61.90;;;;;;5046326;28;20510;-41
2021/01/14 03:38:44;;;;;;;2.53;2.03;;;8.00;61.80;;;;;;5049212;28;20434;-42
2021/01/14 03:41:12;;;;;;;2.97;2.23;;;8.00;62.30;;;;;;5048812;28;20470;-41
2021/01/14 03:43:38;;;;;;;2.93;2.07;;;7.90;62.60;;;;;;5049812;28;20482;-41
2021/01/14 03:46:29;;;;;;;2.37;2.17;;;8.00;62.60;;;;;;5050164;28;20489;-41
2021/01/14 03:48:55;;;;;;;2.57;2.37;;;8.00;62.50;;;;;;5040625;28;20266;-41
2021/01/14 03:51:22;;;;;;;2.90;2.60;;;8.00;62.30;;;;;;5049502;28;20431;-41
2021/01/14 03:53:49;;;;;;;2.50;2.30;;;8.10;62.30;;;;;;5048998;28;20294;-41
2021/01/14 03:56:15;;;;;;;2.13;1.93;;;8.00;62.20;;;;;;5050242;28;20789;-41
2021/01/14 03:58:41;;;;;;;4.40;2.70;;;8.00;62.30;;;;;;5048550;28;20488;-41
2021/01/14 04:01:07;;;;;;;2.97;2.10;;;8.10;62.10;;;;;;5047994;28;20477;-41
2021/01/14 04:03:34;;;;;;;2.60;2.40;;;8.10;61.80;;;;;;5050534;28;20487;-41
2021/01/14 04:05:59;;;;;;;3.27;2.97;;;8.10;62.00;;;;;;5049639;28;20184;-41
2021/01/14 04:08:25;;;;;;;2.70;2.50;;;8.00;62.00;;;;;;5049837;28;21007;-41
2021/01/14 04:10:51;;;;;;;2.47;2.27;;;7.70;62.70;;;;;;5049734;28;20656;-41
2021/01/14 04:13:17;;;;;;;3.47;2.60;;;7.70;63.20;;;;;;5049162;28;20192;-41
2021/01/14 04:15:42;;;;;;;4.70;2.93;;;7.60;62.90;;;;;;5049713;28;20442;-41
2021/01/14 04:18:08;;;;;;;3.47;2.87;;;7.50;63.40;;;;;;5049334;28;20194;-41
2021/01/14 04:20:34;;;;;;;3.23;2.87;;;7.60;63.50;;;;;;5049240;28;20663;-41
2021/01/14 04:23:00;;;;;;;5.03;3.40;;;7.70;63.60;;;;;;5049557;28;20513;-41
2021/01/14 04:25:32;;;;;;;2.60;2.40;;;7.70;63.60;;;;;;5050167;28;20453;-41
2021/01/14 04:27:59;;;;;;;3.30;2.80;;;7.80;63.30;;;;;;5047000;28;20814;-41
2021/01/14 04:30:26;;;;;;;4.40;2.63;;;7.90;63.20;;;;;;5046940;28;20431;-41
2021/01/14 04:33:10;;;;;;;7.40;3.17;;;7.80;63.00;;;;;;5049009;28;20434;-41
2021/01/14 04:35:52;;;;;;;2.73;2.43;;;7.90;63.20;;;;;;5049941;28;20439;-41
2021/01/14 04:38:18;;;;;;;3.43;3.13;;;7.90;63.20;;;;;;5046257;28;20461;-41
2021/01/14 04:40:45;;;;;;;3.40;3.00;;;7.80;62.60;;;;;;5049209;28;20521;-41
2021/01/14 04:43:13;;;;;;;2.73;2.53;;;7.90;63.10;;;;;;5049567;28;20586;-41
2021/01/14 04:45:42;;;;;;;2.70;2.50;;;7.90;62.50;;;;;;5053698;28;20438;-41
2021/01/14 04:48:11;;;;;;;2.90;2.70;;;7.80;63.20;;;;;;5052696;28;20444;-41
2021/01/14 04:50:40;;;;;;;3.30;3.00;;;7.80;63.40;;;;;;5053914;28;20545;-41
2021/01/14 04:53:06;;;;;;;3.60;3.03;;;7.70;63.40;;;;;;5052251;28;20435;-41
2021/01/14 04:55:43;;;;;;;4.27;2.97;;;7.90;63.20;;;;;;5053351;28;20451;-41
2021/01/14 04:58:17;;;;;;;3.17;2.87;;;8.00;62.60;;;;;;5050785;28;20502;-41
2021/01/14 05:00:47;;;;;;;5.13;3.00;;;7.90;62.80;;;;;;5052745;28;20801;-41
2021/01/14 05:03:20;;;;;;;5.57;3.53;;;8.00;62.60;;;;;;5051159;28;21049;-41
2021/01/14 05:05:47;;;;;;;4.10;2.77;;;8.00;62.70;;;;;;5053196;28;20439;-41
2021/01/14 05:08:15;;;;;;;3.27;2.97;;;7.70;63.20;;;;;;5051626;28;20984;-41
2021/01/14 05:10:43;;;;;;;16.53;3.50;;;7.70;63.50;;;;;;5053080;28;20493;-41
2021/01/14 05:13:09;;;;;;;4.87;4.47;;;7.80;63.40;;;;;;5045460;28;20775;-41
2021/01/14 05:15:37;;;;;;;33.00;23.20;;;7.80;63.40;;;;;;5052650;28;20538;-41
2021/01/14 05:18:02;;;;;;;11.83;7.10;;;7.90;63.20;;;;;;5052691;28;20193;-41
2021/01/14 05:20:28;;;;;;;4.83;3.10;;;7.80;63.20;;;;;;5053336;28;20785;-41
2021/01/14 05:23:01;;;;;;;3.70;3.10;;;7.80;63.30;;;;;;5052037;28;20660;-41
2021/01/14 05:25:28;;;;;;;6.00;3.30;;;7.90;63.00;;;;;;5050913;28;20184;-41
2021/01/14 05:27:53;;;;;;;5.00;3.73;;;7.70;63.10;;;;;;5051770;28;20498;-41
2021/01/14 05:30:24;;;;;;;7.60;3.50;;;7.60;63.40;;;;;;5052682;28;20530;-41
2021/01/14 05:32:49;;;;;;;3.53;3.23;;;7.60;64.00;;;;;;5052285;28;20200;-41
2021/01/14 05:35:28;;;;;;;3.97;3.43;;;7.60;64.00;;;;;;5052838;28;21032;-41
2021/01/14 05:38:00;;;;;;;5.17;3.47;;;7.70;63.70;;;;;;5049667;28;20651;-41
2021/01/14 05:40:28;;;;;;;4.43;3.50;;;7.70;63.80;;;;;;5052699;28;20434;-41
2021/01/14 05:43:07;;;;;;;4.20;3.40;;;7.70;63.70;;;;;;5051481;28;20501;-41
2021/01/14 05:45:34;;;;;;;4.97;4.50;;;7.80;63.40;;;;;;5052648;28;20959;-41
2021/01/14 05:48:11;;;;;;;5.50;3.43;;;7.80;63.10;;;;;;5051286;28;20484;-41
2021/01/14 05:50:47;;;;;;;5.43;3.70;;;7.60;63.10;;;;;;5052076;28;22235;-41
2021/01/14 05:53:18;;;;;;;24.43;15.63;;;7.70;63.50;;;;;;5049369;28;20431;-41
2021/01/14 05:55:51;;;;;;;7.27;5.37;;;7.70;63.20;;;;;;5052089;28;20488;-41
2021/01/14 05:58:19;;;;;;;6.80;3.90;;;7.90;62.70;;;;;;5048752;28;20447;-41
2021/01/14 06:00:48;;;;;;;3.83;3.50;;;7.90;62.80;;;;;;5050246;28;21198;-41
2021/01/14 06:03:28;;;;;;;4.57;3.57;;;7.90;62.70;;;;;;5049935;28;20510;-41
2021/01/14 06:05:55;;;;;;;6.17;4.40;;;7.90;62.60;;;;;;5052007;28;20860;-41
2021/01/14 06:08:23;;;;;;;6.37;3.93;;;7.80;62.40;;;;;;5050429;28;20427;-41
2021/01/14 06:10:49;;;;;;;7.50;5.77;;;7.80;62.50;;;;;;5051465;28;20434;-41
2021/01/14 06:13:14;;;;;;;4.07;3.60;;;7.70;62.90;;;;;;5051577;28;20788;-41
2021/01/14 06:15:40;;;;;;;22.90;13.60;;;7.60;63.30;;;;;;5050315;28;20468;-41
2021/01/14 06:18:11;;;;;;;181.63;80.53;;;7.70;63.70;;;;;;5051186;28;20196;-41
2021/01/14 06:20:53;;;;;;;95.23;42.00;;;7.80;63.50;;;;;;5051026;28;20467;-42
2021/01/14 06:23:22;;;;;;;344.80;130.10;;;7.90;62.90;;;;;;5050608;28;20521;-41
2021/01/14 06:25:52;;;;;;;16.77;9.60;;;7.90;62.50;;;;;;5050510;28;20927;-42
2021/01/14 06:28:21;;;;;;;8.60;5.07;;;7.90;62.40;;;;;;5050527;28;20794;-41
2021/01/14 06:31:03;;;;;;;5.93;4.97;;;8.20;62.20;;;;;;5051308;28;20427;-41
2021/01/14 06:33:30;;;;;;;5.67;4.53;;;8.20;61.30;;;;;;5050661;28;20802;-41
2021/01/14 06:36:06;;;;;;;17.97;9.40;;;8.10;60.80;;;;;;5051555;28;20426;-41
2021/01/14 06:38:48;;;;;;;9.50;5.63;;;8.20;61.10;;;;;;5046756;28;21594;-41
2021/01/14 06:41:16;;;;;;;4.37;3.97;;;8.30;60.60;;;;;;5048358;28;20483;-41
2021/01/14 06:43:44;;;;;;;4.27;3.73;;;8.20;60.70;;;;;;5049684;28;20494;-41
2021/01/14 06:46:22;;;;;;;4.97;4.47;;;8.20;61.00;;;;;;5051784;28;20442;-41
2021/01/14 06:48:57;;;;;;;4.23;3.83;;;8.30;60.70;;;;;;5049513;28;20451;-41
2021/01/14 06:51:24;;;;;;;4.00;3.43;;;8.30;60.40;;;;;;5050404;28;20427;-41
2021/01/14 06:53:56;;;;;;;4.97;3.90;;;8.30;60.40;;;;;;5049043;28;20831;-41
2021/01/14 06:56:23;;;;;;;5.17;4.40;;;8.40;60.40;;;;;;5051031;28;20431;-41
2021/01/14 06:58:51;;;;;;;4.53;3.90;;;8.40;60.10;;;;;;5049911;28;20477;-41
2021/01/14 07:01:18;;;;;;;6.07;4.37;;;8.30;60.20;;;;;;5050471;28;20443;-42
2021/01/14 07:04:06;;;;;;;7.37;5.83;;;8.40;60.30;;;;;;5050079;28;20479;-42
2021/01/14 07:06:34;;;;;;;5.30;4.00;;;8.40;60.60;;;;;;5042465;28;20896;-42
2021/01/14 07:09:08;;;;;;;4.90;4.40;;;8.40;60.30;;;;;;5049045;28;20450;-42
2021/01/14 07:11:41;;;;;;;6.90;4.97;;;8.50;60.20;;;;;;5051201;28;20482;-43
2021/01/14 07:14:15;;;;;;;9.93;5.10;;;8.60;59.80;;;;;;5049747;28;20442;-42
2021/01/14 07:16:42;;;;;;;5.90;5.30;;;8.70;60.00;;;;;;5051058;28;20439;-41
2021/01/14 07:19:08;;;;;;;4.97;4.43;;;8.80;59.40;;;;;;5047941;28;20526;-42
2021/01/14 07:21:41;;;;;;;5.73;4.63;;;8.80;59.00;;;;;;5050312;28;20427;-42
2021/01/14 07:24:23;;;;;;;5.13;4.70;;;8.90;59.10;;;;;;5048602;28;20479;-41
2021/01/14 07:26:56;;;;;;;7.10;5.50;;;8.80;58.80;;;;;;5049281;28;20923;-42
2021/01/14 07:29:24;;;;;;;5.13;4.40;;;8.90;58.80;;;;;;5049802;28;20833;-42
2021/01/14 07:31:52;;;;;;;8.73;4.70;;;9.10;58.50;;;;;;5052412;28;20426;-42
2021/01/14 07:34:37;;;;;;;5.73;5.00;;;9.20;58.20;;;;;;5050304;28;20438;-41
2021/01/14 07:37:04;;;;;;;5.83;4.37;;;9.20;57.90;;;;;;5051012;28;20474;-42
2021/01/14 07:39:53;;;;;;;6.40;4.80;;;9.20;57.80;;;;;;5048519;28;20488;-41
2021/01/14 07:42:21;;;;;;;5.23;4.33;;;9.00;58.20;;;;;;5048644;28;20529;-42
2021/01/14 07:44:54;;;;;;;5.47;4.33;;;8.90;58.40;;;;;;5049176;28;20823;-41
2021/01/14 07:47:39;;;;;;;5.63;5.00;;;8.80;58.50;;;;;;5041200;28;20958;-41
2021/01/14 07:50:21;;;;;;;5.90;5.20;;;8.80;58.70;;;;;;5041130;28;20447;-41
2021/01/14 07:52:49;;;;;;;5.40;4.90;;;8.60;59.10;;;;;;5045878;28;20848;-41
2021/01/14 07:55:35;;;;;;;5.90;5.40;;;8.60;58.90;;;;;;5038890;28;20903;-41
2021/01/14 07:58:15;;;;;;;6.50;5.40;;;8.50;59.00;;;;;;5038599;28;20941;-41
2021/01/14 08:00:41;;;;;;;6.10;5.43;;;8.30;59.50;;;;;;5049356;28;20485;-41
2021/01/14 08:03:15;;;;;;;7.37;5.70;;;8.30;59.60;;;;;;5047643;28;20487;-41
2021/01/14 08:05:56;;;;;;;6.80;5.40;;;8.40;59.70;;;;;;5045955;28;20232;-41
2021/01/14 08:08:36;;;;;;;7.30;6.17;;;8.40;59.60;;;;;;5048290;28;20458;-41
2021/01/14 08:11:12;;;;;;;7.67;6.10;;;8.40;59.50;;;;;;5041256;28;20530;-41
2021/01/14 08:13:59;;;;;;;7.13;6.43;;;8.40;59.40;;;;;;5046516;28;20430;-42
2021/01/14 08:16:37;;;;;;;6.70;5.87;;;8.50;59.50;;;;;;5043118;28;20438;-41
2021/01/14 08:19:09;;;;;;;8.70;7.90;;;8.20;60.00;;;;;;5052275;28;21320;-41
2021/01/14 08:21:35;;;;;;;7.20;6.10;;;8.20;60.40;;;;;;5053617;28;20445;-41
2021/01/14 08:24:01;;;;;;;12.10;11.00;;;8.20;60.20;;;;;;5053147;28;20516;-41
2021/01/14 08:26:26;;;;;;;9.97;8.97;;;8.20;60.30;;;;;;5052549;28;20443;-41
2021/01/14 08:29:01;;;;;;;8.10;6.73;;;8.10;60.50;;;;;;5052022;28;20197;-41
2021/01/14 08:31:37;;;;;;;7.10;6.40;;;8.10;60.40;;;;;;5053977;28;20199;-41
2021/01/14 08:34:05;;;;;;;6.97;5.80;;;8.30;60.20;;;;;;5040203;28;20505;-41
2021/01/14 08:36:40;;;;;;;6.87;5.50;;;8.30;60.00;;;;;;5055085;28;20461;-41
2021/01/14 08:39:08;;;;;;;6.70;6.10;;;8.30;60.00;;;;;;5050712;28;20938;-41
2021/01/14 08:41:37;;;;;;;6.70;6.10;;;8.40;59.80;;;;;;5052484;28;20997;-41
2021/01/14 08:44:04;;;;;;;9.67;7.20;;;8.50;59.60;;;;;;5051363;28;20475;-41
2021/01/14 08:46:39;;;;;;;12.63;7.13;;;8.60;59.50;;;;;;5053758;28;20446;-41
2021/01/14 08:49:37;;;;;;;9.70;5.97;;;8.60;59.40;;;;;;5048311;28;20855;-41
2021/01/14 08:52:03;;;;;;;9.90;7.30;;;8.60;59.40;;;;;;5048591;28;20481;-41
2021/01/14 08:54:30;;;;;;;9.53;7.10;;;8.60;59.20;;;;;;5052363;28;20439;-41
2021/01/14 08:57:04;;;;;;;7.83;7.03;;;8.50;59.30;;;;;;5053237;28;20423;-41
2021/01/14 08:59:29;;;;;;;8.67;6.77;;;8.60;59.40;;;;;;5052460;28;20431;-41
2021/01/14 09:01:57;;;;;;;11.90;7.17;;;8.70;59.20;;;;;;5053044;28;20426;-41
2021/01/14 09:04:25;;;;;;;8.40;7.47;;;8.60;59.10;;;;;;5051451;28;20270;-41
2021/01/14 09:06:51;;;;;;;8.73;7.50;;;8.70;59.20;;;;;;5047933;28;20505;-41
2021/01/14 09:09:16;;;;;;;9.20;8.30;;;8.70;59.00;;;;;;5042079;28;20427;-42
2021/01/14 09:11:42;;;;;;;9.73;7.57;;;8.70;59.00;;;;;;5050875;28;20571;-41
2021/01/14 09:14:13;;;;;;;7.80;6.97;;;8.50;59.50;;;;;;5045133;28;20197;-42
2021/01/14 09:16:41;;;;;;;7.93;7.00;;;8.50;59.30;;;;;;5053110;28;20419;-41
2021/01/14 09:19:17;;;;;;;7.97;6.70;;;8.60;59.30;;;;;;5051641;28;20777;-41
2021/01/14 09:21:44;;;;;;;9.17;7.10;;;8.60;59.00;;;;;;5047555;28;20447;-41
2021/01/14 09:24:12;;;;;;;7.70;6.93;;;8.70;59.00;;;;;;5050210;28;20514;-41
2021/01/14 09:26:38;;;;;;;8.60;7.70;;;8.60;59.00;;;;;;5052303;28;20475;-41
2021/01/14 09:29:06;;;;;;;7.97;6.90;;;8.70;58.90;;;;;;5048142;28;20470;-41
2021/01/14 09:31:33;;;;;;;8.33;6.47;;;8.60;58.90;;;;;;5051857;28;20435;-41
2021/01/14 09:33:59;;;;;;;9.27;7.40;;;8.50;58.90;;;;;;5050530;28;20435;-41
2021/01/14 09:36:25;;;;;;;9.63;6.83;;;8.50;59.00;;;;;;5050321;28;20442;-41
2021/01/14 09:38:58;;;;;;;10.40;6.93;;;8.60;59.10;;;;;;5048849;28;20776;-41
2021/01/14 09:41:32;;;;;;;6.90;6.20;;;8.60;59.10;;;;;;5049857;28;20220;-41
2021/01/14 09:44:09;;;;;;;8.60;6.70;;;8.60;58.90;;;;;;5050287;28;20510;-41
2021/01/14 09:46:40;;;;;;;10.87;6.90;;;8.60;58.90;;;;;;5047563;28;20505;-41
2021/01/14 09:49:11;;;;;;;11.07;7.60;;;8.60;59.10;;;;;;5042858;28;20446;-42
2021/01/14 09:51:38;;;;;;;12.50;7.07;;;8.70;59.10;;;;;;5041794;28;20439;-42
2021/01/14 09:54:05;;;;;;;8.00;6.73;;;8.80;58.90;;;;;;5050087;28;20431;-42
2021/01/14 09:56:31;;;;;;;8.40;7.60;;;8.80;58.60;;;;;;5054254;28;20455;-42
2021/01/14 09:59:08;;;;;;;10.87;7.80;;;8.70;58.70;;;;;;5050790;28;20782;-40
2021/01/14 10:01:39;;;;;;;7.87;7.07;;;8.60;58.90;;;;;;5050938;28;20427;-40
2021/01/14 10:04:13;;;;;;;9.03;7.47;;;8.40;59.00;;;;;;5040815;28;20878;-41
2021/01/14 10:06:43;;;;;;;9.97;7.50;;;8.30;59.40;;;;;;5044196;28;20423;-42
2021/01/14 10:09:11;;;;;;;10.33;7.57;;;8.30;59.70;;;;;;5050431;28;20509;-42
2021/01/14 10:11:37;;;;;;;8.77;7.27;;;8.30;60.00;;;;;;5051917;28;20443;-40
2021/01/14 10:14:03;;;;;;;7.87;7.07;;;8.40;60.00;;;;;;5051251;28;20420;-40
2021/01/14 10:16:29;;;;;;;8.37;6.60;;;8.40;59.70;;;;;;5051305;28;20814;-42
2021/01/14 10:19:11;;;;;;;7.70;6.90;;;8.60;59.70;;;;;;5051367;28;20915;-42
2021/01/14 10:21:38;;;;;;;8.00;7.20;;;8.60;59.40;;;;;;5047420;28;20427;-42
2021/01/14 10:24:16;;;;;;;8.63;6.70;;;8.60;59.10;;;;;;5050417;28;20485;-42
2021/01/14 10:26:42;;;;;;;8.33;7.63;;;8.70;59.10;;;;;;5051419;28;20431;-42
2021/01/14 10:29:07;;;;;;;9.10;8.10;;;8.80;59.20;;;;;;5051127;28;20431;-44
2021/01/14 10:31:38;;;;;;;8.47;7.10;;;8.80;58.80;;;;;;5051113;28;20189;-42
2021/01/14 10:34:06;;;;;;;8.07;7.23;;;8.80;58.60;;;;;;5048370;28;20193;-42
2021/01/14 10:36:48;;;;;;;40.90;18.20;;;8.90;58.70;;;;;;5048329;28;20911;-42
2021/01/14 10:39:17;;;;;;;12.23;9.53;;;8.90;64.10;;;;;;5048596;28;20463;-42
2021/01/14 10:41:44;;;;;;;8.37;7.53;;;9.40;61.60;;;;;;5052625;28;20565;-42
2021/01/14 10:44:09;;;;;;;10.90;8.47;;;9.70;58.40;;;;;;5044010;28;20481;-42
2021/01/14 10:46:35;;;;;;;15.27;8.70;;;9.80;57.00;;;;;;5051182;28;20526;-42
2021/01/14 10:49:11;;;;;;;8.13;6.70;;;9.90;56.70;;;;;;5046714;28;20189;-41
2021/01/14 10:51:40;;;;;;;12.07;7.20;;;10.00;55.80;;;;;;5050343;28;20216;-42
2021/01/14 10:54:07;;;;;;;9.53;7.50;;;10.20;55.50;;;;;;5048013;28;20525;-42
2021/01/14 10:56:32;;;;;;;10.53;6.80;;;10.30;54.60;;;;;;5050372;28;20522;-43
2021/01/14 10:59:02;;;;;;;10.30;7.50;;;10.40;54.00;;;;;;5049859;28;20990;-42
2021/01/14 11:01:28;;;;;;;7.50;6.20;;;10.30;53.70;;;;;;5046213;28;20198;-43
2021/01/14 11:04:04;;;;;;;7.93;7.03;;;10.40;53.80;;;;;;5050979;28;20482;-42
2021/01/14 11:06:32;;;;;;;12.53;6.50;;;10.50;53.50;;;;;;5050785;28;20510;-42
2021/01/14 11:09:00;;;;;;;7.70;6.90;;;10.60;53.70;;;;;;5052149;28;20438;-42
2021/01/14 11:11:26;;;;;;;6.83;6.23;;;10.80;53.80;;;;;;5049779;28;20473;-43
2021/01/14 11:13:52;;;;;;;8.53;6.63;;;10.90;53.50;;;;;;5043409;28;20439;-42
2021/01/14 11:16:20;;;;;;;9.77;6.30;;;11.00;53.00;;;;;;5048528;28;20207;-42
2021/01/14 11:18:47;;;;;;;6.47;5.80;;;11.10;52.80;;;;;;5041749;28;20449;-42
2021/01/14 11:21:15;;;;;;;9.90;7.97;;;11.10;52.40;;;;;;5050156;28;20431;-42
2021/01/14 11:23:40;;;;;;;7.50;6.33;;;11.10;51.70;;;;;;5047757;28;20482;-42
2021/01/14 11:26:07;;;;;;;8.93;6.30;;;10.90;51.50;;;;;;5050625;28;20431;-43
2021/01/14 11:28:41;;;;;;;9.83;6.37;;;10.90;52.00;;;;;;5049626;28;20196;-42
2021/01/14 11:31:07;;;;;;;11.60;6.67;;;10.70;51.60;;;;;;5048728;28;20431;-42
2021/01/14 11:33:33;;;;;;;6.13;5.53;;;10.70;52.00;;;;;;5049118;28;20446;-42
2021/01/14 11:35:59;;;;;;;8.73;5.80;;;10.70;52.00;;;;;;5049122;28;20419;-42
2021/01/14 11:38:25;;;;;;;6.17;4.70;;;10.60;51.10;;;;;;5048414;28;20423;-42
2021/01/14 11:40:51;;;;;;;8.77;5.27;;;10.40;50.90;;;;;;5049967;28;20238;-42
2021/01/14 11:43:17;;;;;;;6.43;5.20;;;10.30;50.80;;;;;;5048608;28;20301;-42
2021/01/14 11:45:43;;;;;;;10.40;6.00;;;10.10;51.60;;;;;;5050179;28;20423;-42
2021/01/14 11:48:09;;;;;;;10.47;7.70;;;10.00;52.00;;;;;;5048691;28;20185;-42
2021/01/14 11:50:34;;;;;;;7.70;5.57;;;9.90;52.90;;;;;;5049708;28;20205;-42
2021/01/14 11:53:00;;;;;;;9.30;5.87;;;9.90;52.70;;;;;;5044920;28;20988;-42
2021/01/14 11:55:26;;;;;;;10.20;6.57;;;9.80;53.00;;;;;;5049466;28;20540;-42
2021/01/14 11:57:51;;;;;;;9.73;6.20;;;9.80;53.10;;;;;;5048794;28;20234;-42
2021/01/14 12:00:17;;;;;;;5.80;5.20;;;9.70;53.60;;;;;;5060404;28;20570;-42
2021/01/14 12:02:44;;;;;;;7.20;5.20;;;9.70;53.20;;;;;;5049335;28;20279;-42
2021/01/14 12:05:11;;;;;;;6.57;5.90;;;9.70;53.40;;;;;;5050273;28;20431;-42
2021/01/14 12:07:37;;;;;;;7.57;5.80;;;9.70;53.20;;;;;;5049084;28;20423;-42
2021/01/14 12:10:03;;;;;;;5.17;4.50;;;9.60;53.00;;;;;;5049384;28;20518;-42
2021/01/14 12:12:29;;;;;;;9.13;5.33;;;9.60;53.30;;;;;;5049353;28;20464;-42
2021/01/14 12:14:55;;;;;;;7.33;5.40;;;9.60;53.20;;;;;;5050073;28;20508;-42
2021/01/14 12:17:21;;;;;;;5.40;5.00;;;9.60;53.20;;;;;;5048203;28;20707;-42
2021/01/14 12:19:46;;;;;;;12.97;5.53;;;9.60;53.10;;;;;;5049037;28;20518;-42
2021/01/14 12:22:12;;;;;;;9.67;6.73;;;9.60;53.10;;;;;;5047131;28;20187;-42
2021/01/14 12:24:38;;;;;;;10.23;6.03;;;9.70;53.40;;;;;;5050084;28;20366;-42
2021/01/14 12:27:03;;;;;;;8.13;5.40;;;9.70;53.10;;;;;;5047833;28;20219;-41
2021/01/14 12:29:29;;;;;;;9.60;5.97;;;9.70;53.00;;;;;;5047249;28;20193;-42
2021/01/14 12:31:55;;;;;;;7.73;5.53;;;9.70;52.40;;;;;;5057302;28;20586;-41
2021/01/14 12:34:20;;;;;;;10.50;5.87;;;9.60;52.60;;;;;;5060154;28;20184;-42
2021/01/14 12:36:46;;;;;;;8.97;7.37;;;9.70;53.40;;;;;;5049245;28;20196;-42
2021/01/14 12:39:12;;;;;;;6.80;5.80;;;10.00;52.90;;;;;;5044861;28;20188;-42
2021/01/14 12:41:41;;;;;;;18.10;15.17;;;10.30;53.20;;;;;;5045732;28;20477;-42
2021/01/14 12:44:07;;;;;;;9.53;6.10;;;10.60;53.10;;;;;;5050735;28;20224;-42
2021/01/14 12:46:41;;;;;;;6.67;6.03;;;10.90;52.00;;;;;;5047561;28;20972;-42
2021/01/14 12:49:07;;;;;;;7.80;5.00;;;11.10;51.40;;;;;;5045360;28;20954;-42
2021/01/14 12:51:34;;;;;;;7.70;5.27;;;11.30;50.20;;;;;;5053232;28;20428;-42
2021/01/14 12:54:00;;;;;;;6.07;5.30;;;11.40;49.70;;;;;;5051332;28;20434;-42
2021/01/14 12:56:25;;;;;;;6.90;5.93;;;11.60;49.50;;;;;;5060206;28;20427;-42
2021/01/14 12:58:51;;;;;;;8.47;6.10;;;11.70;49.40;;;;;;5048165;28;20197;-42
2021/01/14 13:01:16;;;;;;;8.13;7.33;;;11.80;48.80;;;;;;5049135;28;20749;-42
2021/01/14 13:03:42;;;;;;;10.90;6.50;;;11.80;48.20;;;;;;5051646;28;20842;-42
2021/01/14 13:06:08;;;;;;;6.97;6.27;;;11.80;47.80;;;;;;5053300;28;20248;-42